Flugplatz Schwäbisch Hall-Weckrieden

Für EDTX sind keine METAR/TAF Berichte vorhanden.
Es werden die Flugwettermeldungen vom Flugplatz Adolf Würth in 0 km Entfernung angezeigt.

Bericht für EDTY

vom 02.06. um 23:50 UTC

variable Windrichtung mit 1 kt

Sichtweite 10 km oder mehr

aufgelockert bewölkt in 23000 ft

Temperatur 12.0°C

Taupunkt 8.0°C

Luftfeuchtigkeit 76%

Luftdruck 1011 hPa

EDTY 022350Z AUTO VRB01KT 9999 // SCT230/// 12/08 Q1011
Keine Prognose (TAF) verfügbar.
Impressum